sensor_id;sensor_type;location;lat;lon;timestamp;pressure;altitude;pressure_sealevel;temperature;humidity
70684;BME280;58263;48.146;11.440;2023-07-16T00:01:58;95405.25;;;22.77;69.28
70684;BME280;58263;48.146;11.440;2023-07-16T00:04:23;95404.09;;;22.69;69.29
70684;BME280;58263;48.146;11.440;2023-07-16T00:06:48;95406.84;;;22.69;70.11
70684;BME280;58263;48.146;11.440;2023-07-16T00:09:14;95401.31;;;22.60;69.25
70684;BME280;58263;48.146;11.440;2023-07-16T00:11:39;95396.16;;;22.59;69.54
70684;BME280;58263;48.146;11.440;2023-07-16T00:14:05;95384.72;;;22.48;69.14
70684;BME280;58263;48.146;11.440;2023-07-16T00:16:30;95392.91;;;22.48;69.01
70684;BME280;58263;48.146;11.440;2023-07-16T00:18:56;95397.25;;;22.40;70.06
70684;BME280;58263;48.146;11.440;2023-07-16T00:21:21;95400.63;;;22.46;70.13
70684;BME280;58263;48.146;11.440;2023-07-16T00:23:46;95396.59;;;22.43;70.44
70684;BME280;58263;48.146;11.440;2023-07-16T00:26:12;95402.06;;;22.43;69.91
70684;BME280;58263;48.146;11.440;2023-07-16T00:28:38;95411.91;;;22.22;71.17
70684;BME280;58263;48.146;11.440;2023-07-16T00:31:03;95402.94;;;22.30;70.95
70684;BME280;58263;48.146;11.440;2023-07-16T00:33:28;95421.13;;;22.03;72.41
70684;BME280;58263;48.146;11.440;2023-07-16T00:35:54;95438.00;;;22.05;72.41
70684;BME280;58263;48.146;11.440;2023-07-16T00:38:19;95459.78;;;22.19;71.42
70684;BME280;58263;48.146;11.440;2023-07-16T00:40:45;95460.72;;;22.15;71.93
70684;BME280;58263;48.146;11.440;2023-07-16T00:43:11;95482.03;;;22.04;72.68
70684;BME280;58263;48.146;11.440;2023-07-16T00:45:38;95514.16;;;22.07;72.72
70684;BME280;58263;48.146;11.440;2023-07-16T00:48:05;95533.19;;;22.12;72.70
70684;BME280;58263;48.146;11.440;2023-07-16T00:50:31;95557.66;;;22.17;72.09
70684;BME280;58263;48.146;11.440;2023-07-16T00:53:00;95577.72;;;21.99;72.58
70684;BME280;58263;48.146;11.440;2023-07-16T00:55:27;95590.03;;;22.10;72.31
70684;BME280;58263;48.146;11.440;2023-07-16T00:57:53;95579.56;;;22.03;72.42
70684;BME280;58263;48.146;11.440;2023-07-16T01:00:21;95611.63;;;21.98;72.79
70684;BME280;58263;48.146;11.440;2023-07-16T01:02:46;95605.88;;;21.99;72.57
70684;BME280;58263;48.146;11.440;2023-07-16T01:05:11;95611.53;;;21.89;73.06
70684;BME280;58263;48.146;11.440;2023-07-16T01:07:38;95633.09;;;21.90;73.29
70684;BME280;58263;48.146;11.440;2023-07-16T01:10:08;95619.00;;;21.97;72.38
70684;BME280;58263;48.146;11.440;2023-07-16T01:12:34;95625.13;;;21.80;73.36
70684;BME280;58263;48.146;11.440;2023-07-16T01:14:59;95624.81;;;21.68;73.56
70684;BME280;58263;48.146;11.440;2023-07-16T01:17:25;95618.44;;;21.72;73.84
70684;BME280;58263;48.146;11.440;2023-07-16T01:31:36;95643.63;;;21.69;73.94
70684;BME280;58263;48.146;11.440;2023-07-16T01:34:04;95650.59;;;21.61;74.19
70684;BME280;58263;48.146;11.440;2023-07-16T01:36:30;95649.38;;;21.68;74.50
70684;BME280;58263;48.146;11.440;2023-07-16T01:38:56;95654.44;;;21.60;74.61
70684;BME280;58263;48.146;11.440;2023-07-16T01:41:22;95652.72;;;21.65;74.41
70684;BME280;58263;48.146;11.440;2023-07-16T01:43:47;95664.25;;;21.61;75.06
70684;BME280;58263;48.146;11.440;2023-07-16T01:46:12;95669.63;;;21.67;74.41
70684;BME280;58263;48.146;11.440;2023-07-16T01:48:38;95662.75;;;21.69;74.97
70684;BME280;58263;48.146;11.440;2023-07-16T01:51:04;95661.91;;;21.69;74.64
70684;BME280;58263;48.146;11.440;2023-07-16T01:53:30;95662.44;;;21.71;75.01
70684;BME280;58263;48.146;11.440;2023-07-16T01:55:56;95663.75;;;21.73;74.55
70684;BME280;58263;48.146;11.440;2023-07-16T01:58:21;95660.72;;;21.75;74.84
70684;BME280;58263;48.146;11.440;2023-07-16T02:00:49;95670.50;;;21.76;74.13
70684;BME280;58263;48.146;11.440;2023-07-16T02:03:14;95671.22;;;21.82;74.47
70684;BME280;58263;48.146;11.440;2023-07-16T02:05:39;95665.16;;;21.71;74.81
70684;BME280;58263;48.146;11.440;2023-07-16T02:08:05;95657.78;;;21.71;75.03
70684;BME280;58263;48.146;11.440;2023-07-16T02:10:31;95660.63;;;21.80;74.57
70684;BME280;58263;48.146;11.440;2023-07-16T02:12:56;95668.78;;;21.66;74.98
70684;BME280;58263;48.146;11.440;2023-07-16T02:15:21;95672.34;;;21.81;74.99
70684;BME280;58263;48.146;11.440;2023-07-16T02:17:47;95674.28;;;21.80;74.98
70684;BME280;58263;48.146;11.440;2023-07-16T02:20:12;95676.28;;;21.74;74.62
70684;BME280;58263;48.146;11.440;2023-07-16T02:22:38;95679.75;;;21.80;74.88
70684;BME280;58263;48.146;11.440;2023-07-16T02:25:03;95669.09;;;21.92;74.33
70684;BME280;58263;48.146;11.440;2023-07-16T02:27:29;95673.66;;;21.83;74.40
70684;BME280;58263;48.146;11.440;2023-07-16T02:29:54;95685.59;;;21.87;73.82
70684;BME280;58263;48.146;11.440;2023-07-16T02:32:20;95688.81;;;21.89;73.86
70684;BME280;58263;48.146;11.440;2023-07-16T02:34:45;95698.53;;;21.95;73.75
70684;BME280;58263;48.146;11.440;2023-07-16T02:37:10;95690.34;;;21.95;73.68
70684;BME280;58263;48.146;11.440;2023-07-16T02:39:36;95690.22;;;22.01;73.20
70684;BME280;58263;48.146;11.440;2023-07-16T02:42:01;95697.31;;;21.88;72.82
70684;BME280;58263;48.146;11.440;2023-07-16T02:44:26;95694.69;;;21.97;72.14
70684;BME280;58263;48.146;11.440;2023-07-16T02:46:52;95705.81;;;21.86;72.92
70684;BME280;58263;48.146;11.440;2023-07-16T02:49:17;95703.16;;;21.95;72.98
70684;BME280;58263;48.146;11.440;2023-07-16T02:51:42;95705.72;;;21.91;73.07
70684;BME280;58263;48.146;11.440;2023-07-16T02:54:08;95702.88;;;21.97;72.70
70684;BME280;58263;48.146;11.440;2023-07-16T02:56:33;95693.09;;;21.82;73.32
70684;BME280;58263;48.146;11.440;2023-07-16T02:58:59;95702.59;;;21.84;73.63
70684;BME280;58263;48.146;11.440;2023-07-16T03:01:24;95705.31;;;21.84;73.15
70684;BME280;58263;48.146;11.440;2023-07-16T03:03:49;95709.66;;;21.99;72.75
70684;BME280;58263;48.146;11.440;2023-07-16T03:06:15;95721.41;;;21.86;73.21
70684;BME280;58263;48.146;11.440;2023-07-16T03:08:40;95711.66;;;21.93;72.64
70684;BME280;58263;48.146;11.440;2023-07-16T03:11:05;95727.34;;;22.02;72.46
70684;BME280;58263;48.146;11.440;2023-07-16T03:13:31;95721.59;;;22.03;72.09
70684;BME280;58263;48.146;11.440;2023-07-16T03:15:56;95726.94;;;21.94;73.22
70684;BME280;58263;48.146;11.440;2023-07-16T03:18:21;95719.16;;;22.02;72.38
70684;BME280;58263;48.146;11.440;2023-07-16T03:20:46;95718.56;;;22.05;72.51
70684;BME280;58263;48.146;11.440;2023-07-16T03:23:12;95721.38;;;22.00;72.70
70684;BME280;58263;48.146;11.440;2023-07-16T03:25:37;95719.97;;;22.02;72.71
70684;BME280;58263;48.146;11.440;2023-07-16T03:28:02;95719.38;;;21.91;73.22
70684;BME280;58263;48.146;11.440;2023-07-16T03:30:30;95726.16;;;21.94;72.79
70684;BME280;58263;48.146;11.440;2023-07-16T03:32:55;95734.84;;;21.96;72.69
70684;BME280;58263;48.146;11.440;2023-07-16T03:35:21;95735.38;;;21.84;73.23
70684;BME280;58263;48.146;11.440;2023-07-16T03:37:46;95743.13;;;21.91;73.60
70684;BME280;58263;48.146;11.440;2023-07-16T03:40:15;95742.63;;;21.89;73.41
70684;BME280;58263;48.146;11.440;2023-07-16T03:42:41;95747.47;;;21.78;73.98
70684;BME280;58263;48.146;11.440;2023-07-16T03:45:08;95758.22;;;21.88;73.56
70684;BME280;58263;48.146;11.440;2023-07-16T03:47:33;95749.91;;;21.93;73.41
70684;BME280;58263;48.146;11.440;2023-07-16T03:49:58;95754.97;;;21.86;73.54
70684;BME280;58263;48.146;11.440;2023-07-16T03:52:24;95760.03;;;21.79;73.77
70684;BME280;58263;48.146;11.440;2023-07-16T03:54:50;95758.19;;;21.60;74.13
70684;BME280;58263;48.146;11.440;2023-07-16T03:57:15;95759.81;;;21.61;74.35
70684;BME280;58263;48.146;11.440;2023-07-16T03:59:42;95764.97;;;21.77;73.66
70684;BME280;58263;48.146;11.440;2023-07-16T04:02:08;95764.47;;;21.75;75.08
70684;BME280;58263;48.146;11.440;2023-07-16T04:04:33;95770.09;;;21.65;75.74
70684;BME280;58263;48.146;11.440;2023-07-16T04:06:59;95787.22;;;21.51;77.88
70684;BME280;58263;48.146;11.440;2023-07-16T04:09:24;95800.81;;;21.56;78.94
70684;BME280;58263;48.146;11.440;2023-07-16T04:11:49;95808.16;;;21.42;81.82
70684;BME280;58263;48.146;11.440;2023-07-16T04:14:15;95808.84;;;21.34;83.09
70684;BME280;58263;48.146;11.440;2023-07-16T04:16:40;95821.19;;;21.45;80.76
70684;BME280;58263;48.146;11.440;2023-07-16T04:19:05;95817.75;;;21.39;80.66
70684;BME280;58263;48.146;11.440;2023-07-16T04:21:31;95818.00;;;21.05;83.48
70684;BME280;58263;48.146;11.440;2023-07-16T04:23:56;95811.78;;;21.18;81.33
70684;BME280;58263;48.146;11.440;2023-07-16T04:26:21;95808.56;;;21.16;82.78
70684;BME280;58263;48.146;11.440;2023-07-16T04:28:46;95814.16;;;21.06;81.83
70684;BME280;58263;48.146;11.440;2023-07-16T04:31:12;95820.59;;;20.96;82.63
70684;BME280;58263;48.146;11.440;2023-07-16T04:33:37;95819.91;;;20.85;84.87
70684;BME280;58263;48.146;11.440;2023-07-16T04:36:02;95819.03;;;20.90;82.38
70684;BME280;58263;48.146;11.440;2023-07-16T04:38:28;95820.94;;;20.89;82.82
70684;BME280;58263;48.146;11.440;2023-07-16T04:40:53;95831.63;;;20.86;82.76
70684;BME280;58263;48.146;11.440;2023-07-16T04:43:18;95830.03;;;20.85;81.06
70684;BME280;58263;48.146;11.440;2023-07-16T04:45:44;95830.03;;;20.60;84.15
70684;BME280;58263;48.146;11.440;2023-07-16T04:48:12;95831.66;;;20.62;84.43
70684;BME280;58263;48.146;11.440;2023-07-16T04:50:38;95816.22;;;20.76;84.07
70684;BME280;58263;48.146;11.440;2023-07-16T04:53:03;95801.09;;;20.65;82.19
70684;BME280;58263;48.146;11.440;2023-07-16T04:55:29;95801.78;;;20.75;83.70
70684;BME280;58263;48.146;11.440;2023-07-16T04:57:54;95793.38;;;20.72;83.01
70684;BME280;58263;48.146;11.440;2023-07-16T05:00:19;95802.59;;;20.76;83.35
70684;BME280;58263;48.146;11.440;2023-07-16T05:02:45;95818.69;;;20.53;84.72
70684;BME280;58263;48.146;11.440;2023-07-16T05:05:10;95818.59;;;20.58;84.11
70684;BME280;58263;48.146;11.440;2023-07-16T05:07:36;95818.41;;;20.55;84.83
70684;BME280;58263;48.146;11.440;2023-07-16T05:10:01;95824.19;;;20.48;86.01
70684;BME280;58263;48.146;11.440;2023-07-16T05:12:26;95830.25;;;20.64;83.79
70684;BME280;58263;48.146;11.440;2023-07-16T05:14:52;95831.34;;;20.44;86.58
70684;BME280;58263;48.146;11.440;2023-07-16T05:17:17;95836.59;;;20.59;85.96
70684;BME280;58263;48.146;11.440;2023-07-16T05:19:42;95833.50;;;20.66;84.09
70684;BME280;58263;48.146;11.440;2023-07-16T05:22:08;95827.66;;;20.54;85.45
70684;BME280;58263;48.146;11.440;2023-07-16T05:24:33;95832.97;;;20.45;85.12
70684;BME280;58263;48.146;11.440;2023-07-16T05:26:58;95841.31;;;20.54;86.77
70684;BME280;58263;48.146;11.440;2023-07-16T05:29:24;95834.22;;;20.53;87.47
70684;BME280;58263;48.146;11.440;2023-07-16T05:31:49;95845.81;;;20.39;88.01
70684;BME280;58263;48.146;11.440;2023-07-16T05:34:14;95840.31;;;20.44;89.01
70684;BME280;58263;48.146;11.440;2023-07-16T05:36:41;95835.50;;;20.60;89.38
70684;BME280;58263;48.146;11.440;2023-07-16T05:39:07;95848.25;;;20.41;89.75
70684;BME280;58263;48.146;11.440;2023-07-16T05:41:33;95846.50;;;20.50;88.88
70684;BME280;58263;48.146;11.440;2023-07-16T05:43:59;95855.97;;;20.58;88.83
70684;BME280;58263;48.146;11.440;2023-07-16T05:46:24;95865.31;;;20.76;88.88
70684;BME280;58263;48.146;11.440;2023-07-16T05:48:49;95876.16;;;20.81;86.89
70684;BME280;58263;48.146;11.440;2023-07-16T05:51:14;95872.25;;;20.63;88.61
70684;BME280;58263;48.146;11.440;2023-07-16T05:53:40;95873.66;;;20.60;88.17
70684;BME280;58263;48.146;11.440;2023-07-16T05:56:05;95875.41;;;20.75;88.08
70684;BME280;58263;48.146;11.440;2023-07-16T05:58:30;95877.91;;;20.67;87.49
70684;BME280;58263;48.146;11.440;2023-07-16T06:00:56;95875.03;;;20.82;87.67
70684;BME280;58263;48.146;11.440;2023-07-16T06:03:21;95879.97;;;20.80;87.87
70684;BME280;58263;48.146;11.440;2023-07-16T06:05:46;95873.84;;;20.88;87.39
70684;BME280;58263;48.146;11.440;2023-07-16T06:08:12;95872.09;;;20.98;88.08
70684;BME280;58263;48.146;11.440;2023-07-16T06:10:37;95875.38;;;21.00;89.13
70684;BME280;58263;48.146;11.440;2023-07-16T06:13:04;95888.59;;;21.06;87.35
70684;BME280;58263;48.146;11.440;2023-07-16T06:15:29;95889.19;;;21.03;89.92
70684;BME280;58263;48.146;11.440;2023-07-16T06:17:54;95889.38;;;21.12;87.80
70684;BME280;58263;48.146;11.440;2023-07-16T06:20:20;95891.50;;;21.34;88.70
70684;BME280;58263;48.146;11.440;2023-07-16T06:22:45;95890.59;;;21.20;88.19
70684;BME280;58263;48.146;11.440;2023-07-16T06:25:10;95889.88;;;21.14;88.06
70684;BME280;58263;48.146;11.440;2023-07-16T06:27:36;95899.38;;;20.98;88.71
70684;BME280;58263;48.146;11.440;2023-07-16T06:30:02;95912.94;;;21.03;86.38
70684;BME280;58263;48.146;11.440;2023-07-16T06:32:27;95905.75;;;21.12;87.98
70684;BME280;58263;48.146;11.440;2023-07-16T06:34:52;95912.06;;;21.26;84.97
70684;BME280;58263;48.146;11.440;2023-07-16T06:37:18;95913.09;;;21.50;86.83
70684;BME280;58263;48.146;11.440;2023-07-16T06:39:43;95907.41;;;21.84;85.74
70684;BME280;58263;48.146;11.440;2023-07-16T06:42:08;95902.19;;;21.69;83.12
70684;BME280;58263;48.146;11.440;2023-07-16T06:44:33;95901.94;;;21.84;79.93
70684;BME280;58263;48.146;11.440;2023-07-16T06:46:59;95893.81;;;22.12;80.44
70684;BME280;58263;48.146;11.440;2023-07-16T06:49:24;95896.72;;;22.35;79.30
70684;BME280;58263;48.146;11.440;2023-07-16T06:51:49;95905.22;;;22.47;78.45
70684;BME280;58263;48.146;11.440;2023-07-16T06:54:15;95903.56;;;22.32;75.62
70684;BME280;58263;48.146;11.440;2023-07-16T06:56:40;95913.53;;;22.09;77.83
70684;BME280;58263;48.146;11.440;2023-07-16T06:59:05;95915.59;;;21.84;76.77
70684;BME280;58263;48.146;11.440;2023-07-16T07:01:30;95908.25;;;21.99;76.73
70684;BME280;58263;48.146;11.440;2023-07-16T07:03:56;95906.81;;;22.48;74.27
70684;BME280;58263;48.146;11.440;2023-07-16T07:06:21;95914.41;;;22.79;72.98
70684;BME280;58263;48.146;11.440;2023-07-16T07:08:47;95916.56;;;22.68;71.67
70684;BME280;58263;48.146;11.440;2023-07-16T07:11:13;95909.56;;;22.62;73.71
70684;BME280;58263;48.146;11.440;2023-07-16T07:13:38;95910.06;;;22.50;73.60
70684;BME280;58263;48.146;11.440;2023-07-16T07:16:04;95907.75;;;22.85;73.74
70684;BME280;58263;48.146;11.440;2023-07-16T07:18:29;95903.81;;;22.64;73.06
70684;BME280;58263;48.146;11.440;2023-07-16T07:20:54;95904.91;;;22.49;73.08
70684;BME280;58263;48.146;11.440;2023-07-16T07:23:19;95909.97;;;22.69;71.54
70684;BME280;58263;48.146;11.440;2023-07-16T07:25:49;95897.72;;;22.53;74.72
70684;BME280;58263;48.146;11.440;2023-07-16T07:28:15;95899.53;;;22.71;72.77
70684;BME280;58263;48.146;11.440;2023-07-16T07:30:40;95898.41;;;22.86;72.58
70684;BME280;58263;48.146;11.440;2023-07-16T07:33:06;95902.97;;;22.63;70.98
70684;BME280;58263;48.146;11.440;2023-07-16T07:35:31;95905.78;;;23.00;72.15
70684;BME280;58263;48.146;11.440;2023-07-16T07:37:56;95906.59;;;22.86;72.47
70684;BME280;58263;48.146;11.440;2023-07-16T07:40:21;95911.06;;;22.82;70.82
70684;BME280;58263;48.146;11.440;2023-07-16T07:42:47;95909.06;;;22.74;70.95
70684;BME280;58263;48.146;11.440;2023-07-16T07:45:12;95907.72;;;22.71;71.82
70684;BME280;58263;48.146;11.440;2023-07-16T07:47:37;95899.94;;;22.92;69.90
70684;BME280;58263;48.146;11.440;2023-07-16T07:50:03;95900.84;;;23.02;71.01
70684;BME280;58263;48.146;11.440;2023-07-16T07:52:28;95899.97;;;22.65;70.43
70684;BME280;58263;48.146;11.440;2023-07-16T07:54:53;95905.28;;;22.98;68.40
70684;BME280;58263;48.146;11.440;2023-07-16T07:57:19;95901.13;;;23.14;69.43
70684;BME280;58263;48.146;11.440;2023-07-16T07:59:45;95906.31;;;23.02;71.03
70684;BME280;58263;48.146;11.440;2023-07-16T08:02:10;95905.09;;;23.44;68.60
70684;BME280;58263;48.146;11.440;2023-07-16T08:04:36;95901.88;;;23.65;66.84
70684;BME280;58263;48.146;11.440;2023-07-16T08:07:01;95901.47;;;23.94;66.18
70684;BME280;58263;48.146;11.440;2023-07-16T08:09:26;95893.44;;;23.75;65.38
70684;BME280;58263;48.146;11.440;2023-07-16T08:11:52;95872.56;;;24.11;64.63
70684;BME280;58263;48.146;11.440;2023-07-16T08:14:17;95873.75;;;24.27;64.60
70684;BME280;58263;48.146;11.440;2023-07-16T08:16:42;95872.22;;;24.44;62.10
70684;BME280;58263;48.146;11.440;2023-07-16T08:19:08;95877.25;;;24.59;62.39
70684;BME280;58263;48.146;11.440;2023-07-16T08:21:34;95877.06;;;24.87;62.77
70684;BME280;58263;48.146;11.440;2023-07-16T08:24:01;95876.16;;;25.36;61.99
70684;BME280;58263;48.146;11.440;2023-07-16T08:26:26;95871.34;;;25.50;61.50
70684;BME280;58263;48.146;11.440;2023-07-16T08:28:51;95870.97;;;25.78;59.47
70684;BME280;58263;48.146;11.440;2023-07-16T08:31:17;95867.78;;;25.58;58.78
70684;BME280;58263;48.146;11.440;2023-07-16T08:33:43;95878.59;;;25.72;58.66
70684;BME280;58263;48.146;11.440;2023-07-16T08:36:09;95880.34;;;25.86;58.02
70684;BME280;58263;48.146;11.440;2023-07-16T08:38:34;95871.59;;;26.10;56.85
70684;BME280;58263;48.146;11.440;2023-07-16T08:41:00;95866.13;;;25.92;56.04
70684;BME280;58263;48.146;11.440;2023-07-16T08:43:26;95848.41;;;26.28;56.04
70684;BME280;58263;48.146;11.440;2023-07-16T08:45:52;95855.84;;;26.66;54.15
70684;BME280;58263;48.146;11.440;2023-07-16T08:48:18;95844.97;;;26.40;54.14
70684;BME280;58263;48.146;11.440;2023-07-16T08:50:46;95851.63;;;26.78;51.85
70684;BME280;58263;48.146;11.440;2023-07-16T08:53:12;95854.72;;;26.97;52.23
70684;BME280;58263;48.146;11.440;2023-07-16T08:55:38;95848.25;;;26.63;51.06
70684;BME280;58263;48.146;11.440;2023-07-16T08:58:04;95852.69;;;26.86;52.25
70684;BME280;58263;48.146;11.440;2023-07-16T09:00:30;95856.94;;;27.25;52.41
70684;BME280;58263;48.146;11.440;2023-07-16T09:02:56;95851.09;;;26.46;52.05
70684;BME280;58263;48.146;11.440;2023-07-16T09:05:22;95850.09;;;27.10;52.40
70684;BME280;58263;48.146;11.440;2023-07-16T09:07:47;95845.44;;;27.02;51.61
70684;BME280;58263;48.146;11.440;2023-07-16T09:10:12;95844.09;;;27.29;49.87
70684;BME280;58263;48.146;11.440;2023-07-16T09:12:45;95849.38;;;26.62;51.64
70684;BME280;58263;48.146;11.440;2023-07-16T09:15:13;95855.25;;;26.91;51.37
70684;BME280;58263;48.146;11.440;2023-07-16T09:17:41;95852.69;;;26.86;53.30
70684;BME280;58263;48.146;11.440;2023-07-16T09:20:07;95857.19;;;26.90;50.41
70684;BME280;58263;48.146;11.440;2023-07-16T09:22:33;95847.97;;;27.58;49.42
70684;BME280;58263;48.146;11.440;2023-07-16T09:25:00;95850.88;;;27.74;49.84
70684;BME280;58263;48.146;11.440;2023-07-16T09:27:30;95843.09;;;28.10;47.92
70684;BME280;58263;48.146;11.440;2023-07-16T09:29:55;95843.38;;;27.96;47.88
70684;BME280;58263;48.146;11.440;2023-07-16T09:32:21;95846.13;;;28.54;47.42
70684;BME280;58263;48.146;11.440;2023-07-16T09:34:49;95837.66;;;28.72;45.33
70684;BME280;58263;48.146;11.440;2023-07-16T09:37:15;95845.16;;;28.01;45.63
70684;BME280;58263;48.146;11.440;2023-07-16T09:39:41;95824.53;;;28.93;46.21
70684;BME280;58263;48.146;11.440;2023-07-16T09:42:07;95835.22;;;28.95;46.47
70684;BME280;58263;48.146;11.440;2023-07-16T09:44:33;95833.75;;;29.38;44.16
70684;BME280;58263;48.146;11.440;2023-07-16T09:46:59;95824.22;;;29.92;43.99
70684;BME280;58263;48.146;11.440;2023-07-16T09:49:28;95821.31;;;30.17;43.91
70684;BME280;58263;48.146;11.440;2023-07-16T09:51:56;95819.81;;;29.47;43.32
70684;BME280;58263;48.146;11.440;2023-07-16T09:54:23;95822.34;;;29.96;44.20
70684;BME280;58263;48.146;11.440;2023-07-16T09:56:54;95821.75;;;29.06;45.61
70684;BME280;58263;48.146;11.440;2023-07-16T09:59:23;95819.19;;;29.25;45.20
70684;BME280;58263;48.146;11.440;2023-07-16T10:01:50;95827.94;;;29.27;43.56
70684;BME280;58263;48.146;11.440;2023-07-16T10:04:19;95826.91;;;29.60;43.80
70684;BME280;58263;48.146;11.440;2023-07-16T10:09:50;95830.16;;;29.50;43.59
70684;BME280;58263;48.146;11.440;2023-07-16T10:12:17;95827.22;;;29.30;43.80
70684;BME280;58263;48.146;11.440;2023-07-16T10:14:51;95821.19;;;28.88;43.88
70684;BME280;58263;48.146;11.440;2023-07-16T10:17:21;95822.19;;;29.08;44.58
70684;BME280;58263;48.146;11.440;2023-07-16T10:19:48;95815.09;;;28.70;44.99
70684;BME280;58263;48.146;11.440;2023-07-16T10:22:14;95823.53;;;29.39;43.95
70684;BME280;58263;48.146;11.440;2023-07-16T10:24:40;95820.81;;;29.55;44.55
70684;BME280;58263;48.146;11.440;2023-07-16T10:27:05;95821.16;;;29.53;43.71
70684;BME280;58263;48.146;11.440;2023-07-16T10:29:30;95819.06;;;30.07;42.27
70684;BME280;58263;48.146;11.440;2023-07-16T10:32:00;95808.53;;;30.12;43.14
70684;BME280;58263;48.146;11.440;2023-07-16T10:34:26;95810.31;;;30.05;42.82
70684;BME280;58263;48.146;11.440;2023-07-16T10:36:52;95803.72;;;30.41;43.38
70684;BME280;58263;48.146;11.440;2023-07-16T10:39:17;95814.53;;;30.30;43.23
70684;BME280;58263;48.146;11.440;2023-07-16T10:41:42;95813.91;;;30.21;44.10
70684;BME280;58263;48.146;11.440;2023-07-16T10:44:08;95807.81;;;29.99;44.19
70684;BME280;58263;48.146;11.440;2023-07-16T10:46:36;95804.09;;;30.40;43.39
70684;BME280;58263;48.146;11.440;2023-07-16T10:49:01;95805.34;;;31.10;41.59
70684;BME280;58263;48.146;11.440;2023-07-16T10:51:27;95805.16;;;30.19;42.61
70684;BME280;58263;48.146;11.440;2023-07-16T10:53:55;95804.53;;;30.26;41.92
70684;BME280;58263;48.146;11.440;2023-07-16T10:56:20;95804.28;;;30.47;42.20
70684;BME280;58263;48.146;11.440;2023-07-16T10:58:46;95809.53;;;30.20;42.40
70684;BME280;58263;48.146;11.440;2023-07-16T11:01:11;95808.81;;;30.39;42.31
70684;BME280;58263;48.146;11.440;2023-07-16T11:03:36;95799.44;;;30.44;42.46
70684;BME280;58263;48.146;11.440;2023-07-16T11:06:11;95809.19;;;30.70;43.63
70684;BME280;58263;48.146;11.440;2023-07-16T11:08:40;95800.53;;;30.39;41.76
70684;BME280;58263;48.146;11.440;2023-07-16T11:11:06;95806.25;;;30.62;41.21
70684;BME280;58263;48.146;11.440;2023-07-16T11:13:32;95795.81;;;30.56;42.24
70684;BME280;58263;48.146;11.440;2023-07-16T11:16:07;95797.19;;;30.81;41.24
70684;BME280;58263;48.146;11.440;2023-07-16T11:18:32;95794.47;;;30.85;41.55
70684;BME280;58263;48.146;11.440;2023-07-16T11:20:59;95782.84;;;31.31;40.59
70684;BME280;58263;48.146;11.440;2023-07-16T11:23:24;95793.34;;;31.61;40.65
70684;BME280;58263;48.146;11.440;2023-07-16T11:25:51;95781.81;;;31.78;39.57
70684;BME280;58263;48.146;11.440;2023-07-16T11:28:17;95790.63;;;31.84;38.99
70684;BME280;58263;48.146;11.440;2023-07-16T11:30:42;95790.97;;;31.59;40.29
70684;BME280;58263;48.146;11.440;2023-07-16T11:33:11;95785.66;;;31.34;40.67
70684;BME280;58263;48.146;11.440;2023-07-16T11:35:37;95781.00;;;31.58;39.23
70684;BME280;58263;48.146;11.440;2023-07-16T11:38:06;95786.03;;;31.52;39.47
70684;BME280;58263;48.146;11.440;2023-07-16T11:40:34;95784.06;;;30.14;41.88
70684;BME280;58263;48.146;11.440;2023-07-16T11:43:10;95775.78;;;29.98;42.86
70684;BME280;58263;48.146;11.440;2023-07-16T11:45:37;95772.47;;;30.57;40.66
70684;BME280;58263;48.146;11.440;2023-07-16T11:48:03;95763.88;;;30.78;39.47
70684;BME280;58263;48.146;11.440;2023-07-16T11:50:29;95763.50;;;30.99;40.84
70684;BME280;58263;48.146;11.440;2023-07-16T11:53:00;95760.16;;;30.54;41.34
70684;BME280;58263;48.146;11.440;2023-07-16T11:55:26;95766.97;;;29.93;41.67
70684;BME280;58263;48.146;11.440;2023-07-16T11:57:51;95768.91;;;29.92;43.24
70684;BME280;58263;48.146;11.440;2023-07-16T12:00:16;95767.25;;;30.87;41.72
70684;BME280;58263;48.146;11.440;2023-07-16T12:02:45;95760.97;;;30.90;42.91
70684;BME280;58263;48.146;11.440;2023-07-16T12:05:20;95754.53;;;31.22;40.66
70684;BME280;58263;48.146;11.440;2023-07-16T12:07:46;95754.69;;;30.93;40.68
70684;BME280;58263;48.146;11.440;2023-07-16T12:10:11;95761.50;;;30.44;41.30
70684;BME280;58263;48.146;11.440;2023-07-16T12:12:36;95755.75;;;30.69;41.08
70684;BME280;58263;48.146;11.440;2023-07-16T12:15:04;95746.94;;;30.31;41.41
70684;BME280;58263;48.146;11.440;2023-07-16T12:17:29;95735.44;;;29.97;42.81
70684;BME280;58263;48.146;11.440;2023-07-16T12:19:54;95746.66;;;29.89;43.49
70684;BME280;58263;48.146;11.440;2023-07-16T12:22:20;95749.84;;;29.30;45.89
70684;BME280;58263;48.146;11.440;2023-07-16T12:24:46;95744.22;;;29.55;45.21
70684;BME280;58263;48.146;11.440;2023-07-16T12:27:12;95748.69;;;29.76;44.28
70684;BME280;58263;48.146;11.440;2023-07-16T12:29:37;95747.50;;;29.61;44.23
70684;BME280;58263;48.146;11.440;2023-07-16T12:32:03;95743.84;;;30.01;44.23
70684;BME280;58263;48.146;11.440;2023-07-16T12:34:28;95752.47;;;29.99;45.08
70684;BME280;58263;48.146;11.440;2023-07-16T12:36:53;95742.50;;;30.11;43.24
70684;BME280;58263;48.146;11.440;2023-07-16T12:39:21;95754.63;;;30.22;43.55
70684;BME280;58263;48.146;11.440;2023-07-16T12:41:46;95742.41;;;30.23;43.51
70684;BME280;58263;48.146;11.440;2023-07-16T12:44:11;95758.38;;;30.14;43.56
70684;BME280;58263;48.146;11.440;2023-07-16T12:46:36;95754.06;;;29.68;44.26
70684;BME280;58263;48.146;11.440;2023-07-16T12:49:02;95757.06;;;29.63;44.95
70684;BME280;58263;48.146;11.440;2023-07-16T12:51:27;95751.13;;;29.49;45.61
70684;BME280;58263;48.146;11.440;2023-07-16T12:53:52;95751.94;;;29.21;45.80
70684;BME280;58263;48.146;11.440;2023-07-16T12:56:18;95753.41;;;28.90;45.60
70684;BME280;58263;48.146;11.440;2023-07-16T12:58:43;95755.69;;;29.00;46.67